createdAt,value
2023-03-16T00:00:44.097Z,67.79
2023-03-16T00:03:20.469Z,67.12
2023-03-16T00:05:54.744Z,67.84
2023-03-16T00:08:27.512Z,67.54
2023-03-16T00:11:00.210Z,68.61
2023-03-16T00:13:33.134Z,67.94
2023-03-16T00:16:07.756Z,68.02
2023-03-16T00:18:40.870Z,67.50
2023-03-16T00:21:14.897Z,67.98
2023-03-16T00:23:47.735Z,67.95
2023-03-16T00:26:20.347Z,66.92
2023-03-16T00:28:54.316Z,67.31
2023-03-16T00:31:28.710Z,66.56
2023-03-16T00:34:02.702Z,67.70
2023-03-16T00:36:38.147Z,67.45
2023-03-16T00:39:11.940Z,66.06
2023-03-16T00:41:45.628Z,67.34
2023-03-16T00:44:18.192Z,67.34
2023-03-16T00:46:52.308Z,67.99
2023-03-16T00:49:25.094Z,68.19
2023-03-16T00:51:57.700Z,68.29
2023-03-16T00:54:32.670Z,67.62
2023-03-16T00:57:05.882Z,67.91
2023-03-16T00:59:39.230Z,67.37
2023-03-16T01:02:14.316Z,66.83
2023-03-16T01:04:48.391Z,66.32
2023-03-16T01:07:21.755Z,66.17
2023-03-16T01:09:54.545Z,66.96
2023-03-16T01:12:27.992Z,66.87
2023-03-16T01:15:01.467Z,66.16
2023-03-16T01:17:35.498Z,66.83
2023-03-16T01:20:12.221Z,67.65
2023-03-16T01:22:45.391Z,67.87
2023-03-16T01:25:18.516Z,67.15
2023-03-16T01:27:53.596Z,66.53
2023-03-16T01:30:26.992Z,67.58
2023-03-16T01:33:01.228Z,68.35
2023-03-16T01:35:34.517Z,66.11
2023-03-16T01:38:07.541Z,67.43
2023-03-16T01:40:40.396Z,66.61
2023-03-16T01:43:13.934Z,67.87
2023-03-16T01:46:19.399Z,66.54
2023-03-16T01:49:07.995Z,68.37
2023-03-16T01:51:44.684Z,67.94
2023-03-16T01:54:24.564Z,66.82
2023-03-16T01:57:04.613Z,68.04
2023-03-16T01:59:43.054Z,66.78
2023-03-16T02:02:20.903Z,66.90
2023-03-16T02:05:02.750Z,67.36
2023-03-16T02:07:42.347Z,67.90
2023-03-16T02:10:16.885Z,67.36
2023-03-16T02:12:49.635Z,67.76
2023-03-16T02:15:22.898Z,67.52
2023-03-16T02:18:00.216Z,67.30
2023-03-16T02:20:43.434Z,67.50
2023-03-16T02:23:19.366Z,67.86
2023-03-16T02:26:02.403Z,68.05
2023-03-16T02:28:48.506Z,67.90
2023-03-16T02:31:22.824Z,67.57
2023-03-16T02:33:57.500Z,67.87
2023-03-16T02:36:30.983Z,67.79
2023-03-16T02:39:05.749Z,68.13
2023-03-16T02:41:47.024Z,68.46
2023-03-16T02:44:24.174Z,68.50
2023-03-16T02:47:03.718Z,69.00
2023-03-16T02:49:39.794Z,68.54
2023-03-16T02:52:13.624Z,68.02
2023-03-16T02:54:46.327Z,69.48
2023-03-16T02:57:19.657Z,68.71
2023-03-16T02:59:52.706Z,68.21
2023-03-16T03:02:26.770Z,68.50
2023-03-16T03:04:59.490Z,68.59
2023-03-16T03:07:32.940Z,68.17
2023-03-16T03:10:11.053Z,68.80
2023-03-16T03:12:44.018Z,69.29
2023-03-16T03:15:17.923Z,69.16
2023-03-16T03:18:01.840Z,69.31
2023-03-16T03:20:36.470Z,69.27
2023-03-16T03:23:09.152Z,68.84
2023-03-16T03:25:41.819Z,69.47
2023-03-16T03:28:15.293Z,68.47
2023-03-16T03:30:48.160Z,67.96
2023-03-16T03:33:22.853Z,68.81
2023-03-16T03:35:57.827Z,68.18
2023-03-16T03:38:32.366Z,69.17
2023-03-16T03:41:07.364Z,68.36
2023-03-16T03:43:42.528Z,68.73
2023-03-16T03:46:20.711Z,69.26
2023-03-16T03:48:54.896Z,69.14
2023-03-16T03:51:28.063Z,69.13
2023-03-16T03:54:09.032Z,68.24
2023-03-16T03:56:58.685Z,68.78
2023-03-16T03:59:31.404Z,68.66
2023-03-16T04:02:13.315Z,68.36
2023-03-16T04:04:52.861Z,69.17
2023-03-16T04:07:25.651Z,68.79
2023-03-16T04:10:02.334Z,68.86
2023-03-16T04:12:43.020Z,68.21
2023-03-16T04:15:17.835Z,69.25
2023-03-16T04:18:00.528Z,68.80
2023-03-16T04:20:36.019Z,68.78
2023-03-16T04:23:09.580Z,69.50
2023-03-16T04:25:45.336Z,68.93
2023-03-16T04:28:19.821Z,69.18
2023-03-16T04:30:56.974Z,68.83
2023-03-16T04:33:40.006Z,69.11
2023-03-16T04:36:14.113Z,69.09
2023-03-16T04:38:47.130Z,69.29
2023-03-16T04:41:21.011Z,69.50
2023-03-16T04:44:01.720Z,68.99
2023-03-16T04:46:36.036Z,69.03
2023-03-16T04:49:12.036Z,69.05
2023-03-16T04:51:50.596Z,69.07
2023-03-16T04:54:25.504Z,68.85
2023-03-16T04:56:58.351Z,68.93
2023-03-16T04:59:51.551Z,68.63
2023-03-16T05:02:32.128Z,69.33
2023-03-16T05:05:07.794Z,69.23
2023-03-16T05:07:43.828Z,68.90
2023-03-16T05:10:19.213Z,69.15
2023-03-16T05:12:52.891Z,69.04
2023-03-16T05:15:25.711Z,69.49
2023-03-16T05:18:05.139Z,68.87
2023-03-16T05:20:38.022Z,68.88
2023-03-16T05:23:13.031Z,69.37
2023-03-16T05:25:52.142Z,69.40
2023-03-16T05:28:27.798Z,69.41
2023-03-16T05:31:06.149Z,69.37
2023-03-16T05:33:45.766Z,69.77
2023-03-16T05:36:24.791Z,69.91
2023-03-16T05:39:02.790Z,69.51
2023-03-16T05:41:41.152Z,69.67
2023-03-16T05:44:26.568Z,69.83
2023-03-16T05:47:14.645Z,69.81
2023-03-16T05:49:51.678Z,69.80
2023-03-16T05:52:33.849Z,69.40
2023-03-16T05:55:14.541Z,70.11
2023-03-16T05:57:47.476Z,70.12
2023-03-16T06:00:21.403Z,70.03
2023-03-16T06:03:02.915Z,70.00
2023-03-16T06:05:39.596Z,69.85
2023-03-16T06:08:12.952Z,70.13
2023-03-16T06:10:49.996Z,69.69
2023-03-16T06:13:24.178Z,69.72
2023-03-16T06:15:57.233Z,70.10
2023-03-16T06:18:30.412Z,69.68
2023-03-16T06:21:03.889Z,70.03
2023-03-16T06:23:37.603Z,69.87
2023-03-16T06:26:13.371Z,70.15
2023-03-16T06:28:49.566Z,69.89
2023-03-16T06:31:22.569Z,69.77
2023-03-16T06:33:56.628Z,69.44
2023-03-16T06:36:30.137Z,69.83
2023-03-16T06:39:05.634Z,69.86
2023-03-16T06:41:48.593Z,69.89
2023-03-16T06:44:22.993Z,69.64
2023-03-16T06:47:04.259Z,70.29
2023-03-16T06:49:37.376Z,70.45
2023-03-16T06:52:17.599Z,69.62
2023-03-16T06:54:50.455Z,69.53
2023-03-16T06:57:26.360Z,69.69
2023-03-16T06:59:59.062Z,69.88
2023-03-16T07:02:32.206Z,69.43
2023-03-16T07:05:05.654Z,69.33
2023-03-16T07:07:38.411Z,69.58
2023-03-16T07:10:12.711Z,69.40
2023-03-16T07:12:47.203Z,69.69
2023-03-16T07:15:21.132Z,69.27
2023-03-16T07:17:54.098Z,68.79
2023-03-16T07:20:28.659Z,69.11
2023-03-16T07:23:01.726Z,69.32
2023-03-16T07:25:35.282Z,68.78
2023-03-16T07:28:11.631Z,69.51
2023-03-16T07:31:02.606Z,68.99
2023-03-16T07:33:42.037Z,69.05
2023-03-16T07:36:19.060Z,68.44
2023-03-16T07:38:57.971Z,69.30
2023-03-16T07:41:32.826Z,69.15
2023-03-16T07:44:21.647Z,68.57
2023-03-16T07:46:55.380Z,69.58
2023-03-16T07:49:31.353Z,69.02
2023-03-16T07:52:05.972Z,68.73
2023-03-16T07:54:44.392Z,68.63
2023-03-16T07:57:19.415Z,68.88
2023-03-16T07:59:54.592Z,68.59
2023-03-16T08:02:27.506Z,68.56
2023-03-16T08:05:00.777Z,68.33
2023-03-16T08:07:35.229Z,69.17
2023-03-16T08:10:15.636Z,68.78
2023-03-16T08:12:57.794Z,68.37
2023-03-16T08:15:33.941Z,69.11
2023-03-16T08:18:15.243Z,68.70
2023-03-16T08:20:48.740Z,68.60
2023-03-16T08:23:22.357Z,68.91
2023-03-16T08:25:55.908Z,69.13
2023-03-16T08:28:31.049Z,68.94
2023-03-16T08:31:08.781Z,68.67
2023-03-16T08:33:48.157Z,68.67
2023-03-16T08:36:24.507Z,68.57
2023-03-16T08:39:07.910Z,68.43
2023-03-16T08:41:50.194Z,68.64
2023-03-16T08:44:33.004Z,67.65
2023-03-16T08:47:07.486Z,67.94
2023-03-16T08:49:42.678Z,67.57
2023-03-16T08:52:26.176Z,68.29
2023-03-16T08:55:03.390Z,67.82
2023-03-16T08:57:37.507Z,68.09
2023-03-16T09:00:13.451Z,67.20
2023-03-16T09:02:47.988Z,67.18
2023-03-16T09:05:20.732Z,67.02
2023-03-16T09:07:56.422Z,67.40
2023-03-16T09:10:30.367Z,69.26
2023-03-16T09:13:03.657Z,67.10
2023-03-16T09:15:36.538Z,67.84
2023-03-16T09:18:11.437Z,67.06
2023-03-16T09:20:44.357Z,67.25
2023-03-16T09:23:21.719Z,68.21
2023-03-16T09:25:58.274Z,67.58
2023-03-16T09:28:31.990Z,68.57
2023-03-16T09:31:04.896Z,66.49
2023-03-16T09:33:41.071Z,66.18
2023-03-16T09:36:14.578Z,66.70
2023-03-16T09:38:47.396Z,66.91
2023-03-16T09:41:34.401Z,66.86
2023-03-16T09:44:19.090Z,68.08
2023-03-16T09:46:54.650Z,64.07
2023-03-16T09:49:32.876Z,65.42
2023-03-16T09:52:17.221Z,64.96
2023-03-16T09:54:57.067Z,65.10
2023-03-16T09:57:34.838Z,65.03
2023-03-16T10:00:18.073Z,63.67
2023-03-16T10:03:06.301Z,67.34
2023-03-16T10:05:40.884Z,64.18
2023-03-16T10:08:16.864Z,62.82
2023-03-16T10:11:23.505Z,64.09
2023-03-16T10:14:03.463Z,65.21
2023-03-16T10:16:41.175Z,63.31
2023-03-16T10:19:18.662Z,63.88
2023-03-16T10:21:58.029Z,65.66
2023-03-16T10:24:44.076Z,62.01
2023-03-16T10:27:21.510Z,63.45
2023-03-16T10:29:54.386Z,61.89
2023-03-16T10:32:29.491Z,62.43
2023-03-16T10:35:09.933Z,63.43
2023-03-16T10:37:46.598Z,62.30
2023-03-16T10:40:20.432Z,61.88
2023-03-16T10:42:53.850Z,64.81
2023-03-16T10:45:31.416Z,63.67
2023-03-16T10:48:09.392Z,63.41
2023-03-16T10:50:44.303Z,65.23
2023-03-16T10:53:23.679Z,62.12
2023-03-16T10:55:59.998Z,63.74
2023-03-16T10:58:35.445Z,62.86
2023-03-16T11:01:13.648Z,64.39
2023-03-16T11:03:51.128Z,62.55
2023-03-16T11:06:25.977Z,62.42
2023-03-16T11:09:10.594Z,61.41
2023-03-16T11:11:49.428Z,64.76
2023-03-16T11:14:26.590Z,61.19
2023-03-16T11:17:04.403Z,61.01
2023-03-16T11:19:42.719Z,61.09
2023-03-16T11:22:19.463Z,61.04
2023-03-16T11:24:56.393Z,62.58
2023-03-16T11:27:36.165Z,59.61
2023-03-16T11:30:16.402Z,60.58
2023-03-16T11:32:54.356Z,61.69
2023-03-16T11:35:52.770Z,62.56
2023-03-16T11:38:36.190Z,61.89
2023-03-16T11:41:15.371Z,60.66
2023-03-16T11:43:53.828Z,60.93
2023-03-16T11:46:30.874Z,60.19
2023-03-16T11:49:24.655Z,59.66
2023-03-16T11:52:06.468Z,59.27
2023-03-16T11:54:52.602Z,60.45
2023-03-16T11:57:36.644Z,59.01
2023-03-16T12:00:25.624Z,60.40
2023-03-16T12:03:17.568Z,59.23
2023-03-16T12:06:02.096Z,59.10
2023-03-16T12:08:54.735Z,59.03
2023-03-16T12:11:31.344Z,58.88
2023-03-16T12:14:17.807Z,60.57
2023-03-16T12:16:57.488Z,57.73
2023-03-16T12:19:42.575Z,57.60
2023-03-16T12:22:21.591Z,58.73
2023-03-16T12:24:54.740Z,60.08
2023-03-16T12:27:33.301Z,58.26
2023-03-16T12:30:25.933Z,57.70
2023-03-16T12:33:07.701Z,60.66
2023-03-16T12:35:46.883Z,59.78
2023-03-16T12:38:45.902Z,60.53
2023-03-16T12:41:28.096Z,56.95
2023-03-16T12:44:12.549Z,58.00
2023-03-16T12:46:57.644Z,58.00
2023-03-16T12:49:36.430Z,57.79
2023-03-16T12:52:14.611Z,57.24
2023-03-16T12:54:52.957Z,57.57
2023-03-16T12:57:27.154Z,57.63
2023-03-16T13:00:01.669Z,57.42
2023-03-16T13:02:38.697Z,56.18
2023-03-16T13:05:14.184Z,56.58
2023-03-16T13:07:49.312Z,57.01
2023-03-16T13:10:22.357Z,57.36
2023-03-16T13:12:56.080Z,55.54
2023-03-16T13:15:31.732Z,56.02
2023-03-16T13:18:21.578Z,56.30
2023-03-16T13:20:59.685Z,55.67
2023-03-16T13:23:59.969Z,55.77
2023-03-16T13:26:48.481Z,56.85
2023-03-16T13:29:26.620Z,58.12
2023-03-16T13:32:03.666Z,55.72
2023-03-16T13:34:51.461Z,56.09
2023-03-16T13:37:28.638Z,55.45
2023-03-16T13:40:06.367Z,53.82
2023-03-16T13:42:41.114Z,55.67
2023-03-16T13:45:16.323Z,54.67
2023-03-16T13:47:50.274Z,56.65
2023-03-16T13:50:25.358Z,55.58
2023-03-16T13:53:02.937Z,56.15
2023-03-16T13:55:38.577Z,56.52
2023-03-16T13:58:21.640Z,56.24
2023-03-16T14:00:58.875Z,54.79
2023-03-16T14:03:34.055Z,54.30
2023-03-16T14:06:26.636Z,54.54
2023-03-16T14:09:03.378Z,54.63
2023-03-16T14:11:37.072Z,54.40
2023-03-16T14:14:16.821Z,54.54
2023-03-16T14:16:49.601Z,55.83
2023-03-16T14:19:32.127Z,54.55
2023-03-16T14:22:06.881Z,53.74
2023-03-16T14:24:40.655Z,54.35
2023-03-16T14:27:22.805Z,54.53
2023-03-16T14:30:00.690Z,54.41
2023-03-16T14:32:34.315Z,54.93
2023-03-16T14:35:16.935Z,54.83
2023-03-16T14:37:51.933Z,53.90
2023-03-16T14:40:29.625Z,54.36
2023-03-16T14:43:05.734Z,53.69
2023-03-16T14:45:38.788Z,55.41
2023-03-16T14:48:18.062Z,55.20
2023-03-16T14:50:55.513Z,53.93
2023-03-16T14:53:30.087Z,54.81
2023-03-16T14:56:03.823Z,53.59
2023-03-16T14:58:36.571Z,54.15
2023-03-16T15:01:17.993Z,53.53
2023-03-16T15:03:50.931Z,55.97
2023-03-16T15:06:24.258Z,53.35
2023-03-16T15:08:58.657Z,53.44
2023-03-16T15:11:31.945Z,55.19
2023-03-16T15:14:35.365Z,54.23
2023-03-16T15:17:09.005Z,54.56
2023-03-16T15:19:41.823Z,55.34
2023-03-16T15:22:14.955Z,54.13
2023-03-16T15:24:49.303Z,54.12
2023-03-16T15:27:26.448Z,53.61
2023-03-16T15:29:59.224Z,53.62
2023-03-16T15:32:32.113Z,53.72
2023-03-16T15:35:04.808Z,52.48
2023-03-16T15:37:37.836Z,52.49
2023-03-16T15:40:20.196Z,52.52
2023-03-16T15:42:53.926Z,52.71
2023-03-16T15:45:27.211Z,52.09
2023-03-16T15:48:00.039Z,53.88
2023-03-16T15:50:33.078Z,54.07
2023-03-16T15:53:07.052Z,54.28
2023-03-16T15:55:45.100Z,54.15
2023-03-16T15:58:24.272Z,55.28
2023-03-16T16:00:58.970Z,54.36
2023-03-16T16:03:31.919Z,55.92
2023-03-16T16:06:04.896Z,56.38
2023-03-16T16:08:37.973Z,58.25
2023-03-16T16:11:14.014Z,58.07
2023-03-16T16:13:47.251Z,56.30
2023-03-16T16:16:20.824Z,56.85
2023-03-16T16:18:56.876Z,55.75
2023-03-16T16:21:31.519Z,57.08
2023-03-16T16:24:05.772Z,56.23
2023-03-16T16:26:49.874Z,57.38
2023-03-16T16:29:27.136Z,58.24
2023-03-16T16:32:00.049Z,58.59
2023-03-16T16:34:32.868Z,58.92
2023-03-16T16:37:05.921Z,59.44
2023-03-16T16:39:38.448Z,58.05
2023-03-16T16:42:17.300Z,57.45
2023-03-16T16:44:51.776Z,57.07
2023-03-16T16:47:24.522Z,58.52
2023-03-16T16:49:57.698Z,58.37
2023-03-16T16:52:30.757Z,58.82
2023-03-16T16:55:03.459Z,57.19
2023-03-16T16:57:37.918Z,57.18
2023-03-16T17:00:19.528Z,59.78
2023-03-16T17:02:54.120Z,60.30
2023-03-16T17:05:30.030Z,58.44
2023-03-16T17:08:04.216Z,58.40
2023-03-16T17:10:37.804Z,56.95
2023-03-16T17:13:23.203Z,61.56
2023-03-16T17:15:56.375Z,58.59
2023-03-16T17:18:29.952Z,57.75
2023-03-16T17:21:02.794Z,58.49
2023-03-16T17:23:37.421Z,57.90
2023-03-16T17:26:16.107Z,59.69
2023-03-16T17:28:53.163Z,57.29
2023-03-16T17:31:31.038Z,57.66
2023-03-16T17:34:10.313Z,58.30
2023-03-16T17:36:43.058Z,63.20
2023-03-16T17:39:18.953Z,61.83
2023-03-16T17:41:55.764Z,59.25
2023-03-16T17:44:33.707Z,64.31
2023-03-16T17:47:14.741Z,60.70
2023-03-16T17:49:48.977Z,60.32
2023-03-16T17:52:24.124Z,58.96
2023-03-16T17:54:57.330Z,59.59
2023-03-16T17:57:32.738Z,61.88
2023-03-16T18:00:22.365Z,60.63
2023-03-16T18:02:57.235Z,63.64
2023-03-16T18:05:32.029Z,60.38
2023-03-16T18:08:15.040Z,63.92
2023-03-16T18:10:50.885Z,63.21
2023-03-16T18:13:26.951Z,60.37
2023-03-16T18:16:02.824Z,60.41
2023-03-16T18:18:39.783Z,59.42
2023-03-16T18:21:19.581Z,60.40
2023-03-16T18:23:53.234Z,60.56
2023-03-16T18:26:27.564Z,61.94
2023-03-16T18:29:00.572Z,63.23
2023-03-16T18:31:34.801Z,60.66
2023-03-16T18:34:11.494Z,62.95
2023-03-16T18:36:45.682Z,61.61
2023-03-16T18:39:21.516Z,64.67
2023-03-16T18:41:54.296Z,62.10
2023-03-16T18:44:27.374Z,64.43
2023-03-16T18:47:04.005Z,61.94
2023-03-16T18:49:37.905Z,63.70
2023-03-16T18:52:17.396Z,62.65
2023-03-16T18:54:51.270Z,62.95
2023-03-16T18:57:26.409Z,61.74
2023-03-16T18:59:59.254Z,61.31
2023-03-16T19:02:37.211Z,59.76
2023-03-16T19:05:16.663Z,61.32
2023-03-16T19:07:51.389Z,62.90
2023-03-16T19:10:27.488Z,62.78
2023-03-16T19:13:01.896Z,62.89
2023-03-16T19:15:35.681Z,61.00
2023-03-16T19:18:10.320Z,60.69
2023-03-16T19:20:45.390Z,64.67
2023-03-16T19:23:21.773Z,60.58
2023-03-16T19:25:55.918Z,63.00
2023-03-16T19:28:33.808Z,61.33
2023-03-16T19:31:15.450Z,60.28
2023-03-16T19:33:51.907Z,63.61
2023-03-16T19:36:26.249Z,63.53
2023-03-16T19:38:59.739Z,61.32
2023-03-16T19:41:35.748Z,64.58
2023-03-16T19:44:15.767Z,61.70
2023-03-16T19:46:50.873Z,63.32
2023-03-16T19:49:27.218Z,60.41
2023-03-16T19:51:59.952Z,63.40
2023-03-16T19:54:33.424Z,66.06
2023-03-16T19:57:14.388Z,62.63
2023-03-16T19:59:51.003Z,62.51
2023-03-16T20:02:26.560Z,63.72
2023-03-16T20:05:00.874Z,62.53
2023-03-16T20:07:37.944Z,60.65
2023-03-16T20:10:18.006Z,62.11
2023-03-16T20:12:53.039Z,61.40
2023-03-16T20:15:31.601Z,60.46
2023-03-16T20:18:06.735Z,60.21
2023-03-16T20:20:42.846Z,64.95
2023-03-16T20:23:24.114Z,61.05
2023-03-16T20:26:01.976Z,60.50
2023-03-16T20:28:37.470Z,60.74
2023-03-16T20:31:18.242Z,61.09
2023-03-16T20:33:53.003Z,61.31
2023-03-16T20:36:27.639Z,63.57
2023-03-16T20:39:02.250Z,65.36
2023-03-16T20:41:36.527Z,66.06
2023-03-16T20:44:16.956Z,60.96
2023-03-16T20:46:50.526Z,61.48
2023-03-16T20:49:32.436Z,61.50
2023-03-16T20:52:16.316Z,63.31
2023-03-16T20:54:49.600Z,66.16
2023-03-16T20:57:39.150Z,64.04
2023-03-16T21:00:23.761Z,60.88
2023-03-16T21:02:56.549Z,61.36
2023-03-16T21:05:29.888Z,63.97
2023-03-16T21:08:04.241Z,61.73
2023-03-16T21:10:37.103Z,61.34
2023-03-16T21:13:19.254Z,63.29
2023-03-16T21:15:53.020Z,61.84
2023-03-16T21:18:26.061Z,62.25
2023-03-16T21:20:59.120Z,62.10
2023-03-16T21:23:33.363Z,62.66
2023-03-16T21:26:09.042Z,64.60
2023-03-16T21:28:42.279Z,64.65
2023-03-16T21:31:19.669Z,65.42
2023-03-16T21:33:54.021Z,64.20
2023-03-16T21:36:27.224Z,62.41
2023-03-16T21:39:01.302Z,64.11
2023-03-16T21:41:34.052Z,63.04
2023-03-16T21:44:06.836Z,62.85
2023-03-16T21:46:40.259Z,66.59
2023-03-16T21:49:13.793Z,62.63
2023-03-16T21:51:46.722Z,67.47
2023-03-16T21:54:20.761Z,67.44
2023-03-16T21:56:53.461Z,67.37
2023-03-16T21:59:26.457Z,67.31
2023-03-16T22:02:02.300Z,62.96
2023-03-16T22:04:35.596Z,66.61
2023-03-16T22:07:12.503Z,63.54
2023-03-16T22:09:46.635Z,66.62
2023-03-16T22:12:19.442Z,65.53
2023-03-16T22:14:52.285Z,66.24
2023-03-16T22:17:24.947Z,63.36
2023-03-16T22:19:57.710Z,63.24
2023-03-16T22:22:33.994Z,64.64
2023-03-16T22:25:14.772Z,62.75
2023-03-16T22:27:48.218Z,63.61
2023-03-16T22:30:23.712Z,66.54
2023-03-16T22:32:59.681Z,62.61
2023-03-16T22:35:35.653Z,63.57
2023-03-16T22:38:13.170Z,64.61
2023-03-16T22:40:47.206Z,63.01
2023-03-16T22:43:25.377Z,64.99
2023-03-16T22:45:58.106Z,62.41
2023-03-16T22:48:32.213Z,62.71
2023-03-16T22:51:05.754Z,62.98
2023-03-16T22:53:42.404Z,63.64
2023-03-16T22:56:16.490Z,62.74
2023-03-16T22:58:52.486Z,62.50
2023-03-16T23:01:30.228Z,64.51
2023-03-16T23:04:03.432Z,62.21
2023-03-16T23:06:36.343Z,62.20
2023-03-16T23:09:13.651Z,64.38
2023-03-16T23:11:52.446Z,62.43
2023-03-16T23:14:30.176Z,61.88
2023-03-16T23:17:02.906Z,63.57
2023-03-16T23:19:36.046Z,62.06
2023-03-16T23:22:09.177Z,62.79
2023-03-16T23:24:42.333Z,63.60
2023-03-16T23:27:19.056Z,63.38
2023-03-16T23:29:51.850Z,62.72
2023-03-16T23:32:24.546Z,64.08
2023-03-16T23:34:57.267Z,67.93
2023-03-16T23:37:29.938Z,66.99
2023-03-16T23:40:03.769Z,67.57
2023-03-16T23:42:38.332Z,64.47
2023-03-16T23:45:21.864Z,64.97
2023-03-16T23:47:57.231Z,63.92
2023-03-16T23:50:32.385Z,63.78
2023-03-16T23:53:07.570Z,64.13
2023-03-16T23:55:41.159Z,64.07
2023-03-16T23:58:17.150Z,65.38
